Denver, CO

3:35 PM MST on December 17, 2014 (GMT -0700)
Centennial | Change Station
CLOSE
Current Station
Airport
Location: Denver Centennial,
Elevation: 5883 ft
Nearby Weather Stations

Elev 5883 ft 39.56 °N, 104.85 °W | Updated 42 minutes ago

Overcast
Overcast
42 °F
Feels Like 40 °F
N
4
Wind Variable Wind from East

Today
High -- | Low -- °F
--% Chance of Precip.
Yesterday
High -- | Low -- °F
Precip. -- in
7:15 AM 4:37 PM
Waning Crescent, 19% visible
Pressure 29.95 in
Visibility 10.0 miles
Clouds Few 8000 ft
Scattered Clouds 8500 ft
Overcast 15000 ft
Windchill 40 °F
Dew Point 22 °F
Humidity 45%
Rainfall 0.00 in
Snow Depth Not available.
UV 0 out of 12
Pollen .10 out of 12
Air Quality Not available.
Flu Activity Not available.
METAR KAPA 172153Z 10003KT 10SM FEW080 SCT085 OVC150 06/M06 A2989 RMK AO2 SLP140 SHSN DSNT SW MTNS OBSCD DSNT NW-N T00561056

More Conditions Fewer Conditions

Pressure 29.95 in
Visibility 10.0 miles
Clouds Few 8000 ft
Scattered Clouds 8500 ft
Overcast 15000 ft
Windchill 40 °F
Dew Point 22 °F
Humidity 45%
Rainfall 0.00 in
Snow Depth Not available.
UV 0 out of 12
Pollen .10 out of 12
Air Quality Not available.
Flu Activity Not available.
METAR KAPA 172153Z 10003KT 10SM FEW080 SCT085 OVC150 06/M06 A2989 RMK AO2 SLP140 SHSN DSNT SW MTNS OBSCD DSNT NW-N T00561056

More Conditions Fewer Conditions

10-Day Weather Forecast

Almanac

Astronomy

Dec. 17, 2014 Rise Set
Actual Time
Civil Twilight
Nautical Twilight
Astronomical Twilight
Moon
Length of Visible Light
Length of Day
Tomorrow will be .
, % of the Moon is Illuminated

Today's Extremes

State Highs State Lows

Community

WunderPhotos

Upload Photos

1,778,813 photos uploaded!

WunderBlogs® & News

Nearby

Air Quality

  Air Quality AQ Index Pollutant
Not available.

Snow Depth

Station Depth Elevation

Earthquake Activity

City Distance Mag. Time & Date
Minimum magnitude displayed is 2.5.

Coastal Water Temperatures

Place Temperature

Nearby Weather Stations